sensor_id;sensor_type;location;lat;lon;timestamp;temperature;humidity
8707;DHT22;4390;49.302;9.306;2023-02-18T00:01:27;9.90;98.30
8707;DHT22;4390;49.302;9.306;2023-02-18T00:03:57;9.90;98.30
8707;DHT22;4390;49.302;9.306;2023-02-18T00:06:26;9.90;98.30
8707;DHT22;4390;49.302;9.306;2023-02-18T00:08:53;10.00;98.30
8707;DHT22;4390;49.302;9.306;2023-02-18T00:11:21;9.90;98.30
8707;DHT22;4390;49.302;9.306;2023-02-18T00:13:52;9.90;98.30
8707;DHT22;4390;49.302;9.306;2023-02-18T00:16:20;10.00;98.30
8707;DHT22;4390;49.302;9.306;2023-02-18T00:18:47;9.90;98.30
8707;DHT22;4390;49.302;9.306;2023-02-18T00:21:13;10.00;98.30
8707;DHT22;4390;49.302;9.306;2023-02-18T00:23:41;10.20;98.30
8707;DHT22;4390;49.302;9.306;2023-02-18T00:26:11;10.30;98.30
8707;DHT22;4390;49.302;9.306;2023-02-18T00:28:39;10.20;98.30
8707;DHT22;4390;49.302;9.306;2023-02-18T00:31:18;10.30;98.30
8707;DHT22;4390;49.302;9.306;2023-02-18T00:33:45;10.20;98.30
8707;DHT22;4390;49.302;9.306;2023-02-18T00:36:15;10.00;98.30
8707;DHT22;4390;49.302;9.306;2023-02-18T00:38:44;9.80;98.30
8707;DHT22;4390;49.302;9.306;2023-02-18T00:41:11;9.70;98.30
8707;DHT22;4390;49.302;9.306;2023-02-18T00:43:38;9.70;98.30
8707;DHT22;4390;49.302;9.306;2023-02-18T00:46:05;9.80;98.30
8707;DHT22;4390;49.302;9.306;2023-02-18T00:48:34;9.90;98.30
8707;DHT22;4390;49.302;9.306;2023-02-18T00:51:02;9.90;98.30
8707;DHT22;4390;49.302;9.306;2023-02-18T00:53:29;9.80;98.30
8707;DHT22;4390;49.302;9.306;2023-02-18T00:55:57;9.60;98.30
8707;DHT22;4390;49.302;9.306;2023-02-18T00:58:23;9.70;98.30
8707;DHT22;4390;49.302;9.306;2023-02-18T01:00:50;9.70;98.30
8707;DHT22;4390;49.302;9.306;2023-02-18T01:03:17;9.70;98.30
8707;DHT22;4390;49.302;9.306;2023-02-18T01:05:44;9.50;98.30
8707;DHT22;4390;49.302;9.306;2023-02-18T01:08:11;9.60;98.30
8707;DHT22;4390;49.302;9.306;2023-02-18T01:10:44;9.70;98.30
8707;DHT22;4390;49.302;9.306;2023-02-18T01:13:12;9.70;98.30
8707;DHT22;4390;49.302;9.306;2023-02-18T01:15:40;9.80;98.30
8707;DHT22;4390;49.302;9.306;2023-02-18T01:18:09;9.60;98.30
8707;DHT22;4390;49.302;9.306;2023-02-18T01:20:40;9.70;98.30
8707;DHT22;4390;49.302;9.306;2023-02-18T01:23:07;9.70;98.30
8707;DHT22;4390;49.302;9.306;2023-02-18T01:25:36;9.70;98.30
8707;DHT22;4390;49.302;9.306;2023-02-18T01:28:05;9.70;98.30
8707;DHT22;4390;49.302;9.306;2023-02-18T01:30:31;9.80;98.30
8707;DHT22;4390;49.302;9.306;2023-02-18T01:32:58;9.90;98.30
8707;DHT22;4390;49.302;9.306;2023-02-18T01:35:25;10.00;98.30
8707;DHT22;4390;49.302;9.306;2023-02-18T01:37:53;9.90;98.30
8707;DHT22;4390;49.302;9.306;2023-02-18T01:40:22;9.80;98.30
8707;DHT22;4390;49.302;9.306;2023-02-18T01:42:50;9.70;98.30
8707;DHT22;4390;49.302;9.306;2023-02-18T01:51:18;9.90;98.30
8707;DHT22;4390;49.302;9.306;2023-02-18T01:53:53;9.90;98.30
8707;DHT22;4390;49.302;9.306;2023-02-18T01:56:33;10.10;98.30
8707;DHT22;4390;49.302;9.306;2023-02-18T01:59:04;10.00;98.30
8707;DHT22;4390;49.302;9.306;2023-02-18T02:01:32;10.00;98.30
8707;DHT22;4390;49.302;9.306;2023-02-18T02:04:00;10.00;98.30
8707;DHT22;4390;49.302;9.306;2023-02-18T02:06:27;10.10;98.30
8707;DHT22;4390;49.302;9.306;2023-02-18T02:08:57;9.90;98.30
8707;DHT22;4390;49.302;9.306;2023-02-18T02:11:54;9.80;98.30
8707;DHT22;4390;49.302;9.306;2023-02-18T02:20:47;9.90;98.30
8707;DHT22;4390;49.302;9.306;2023-02-18T02:26:45;9.90;98.30
8707;DHT22;4390;49.302;9.306;2023-02-18T02:35:28;9.80;98.30
8707;DHT22;4390;49.302;9.306;2023-02-18T02:38:05;9.90;98.30
8707;DHT22;4390;49.302;9.306;2023-02-18T02:41:12;9.80;98.30
8707;DHT22;4390;49.302;9.306;2023-02-18T02:43:58;9.80;98.30
8707;DHT22;4390;49.302;9.306;2023-02-18T02:46:36;9.90;98.30
8707;DHT22;4390;49.302;9.306;2023-02-18T02:49:12;10.00;98.30
8707;DHT22;4390;49.302;9.306;2023-02-18T02:54:52;9.80;98.30
8707;DHT22;4390;49.302;9.306;2023-02-18T03:00:00;9.80;98.30
8707;DHT22;4390;49.302;9.306;2023-02-18T03:06:06;9.90;98.30
8707;DHT22;4390;49.302;9.306;2023-02-18T03:08:49;9.90;98.30
8707;DHT22;4390;49.302;9.306;2023-02-18T03:11:19;9.90;98.30
8707;DHT22;4390;49.302;9.306;2023-02-18T03:16:39;10.00;98.30
8707;DHT22;4390;49.302;9.306;2023-02-18T03:22:02;10.00;98.30
8707;DHT22;4390;49.302;9.306;2023-02-18T03:24:38;9.90;98.30
8707;DHT22;4390;49.302;9.306;2023-02-18T03:27:35;9.90;98.30
8707;DHT22;4390;49.302;9.306;2023-02-18T03:30:09;10.00;98.30
8707;DHT22;4390;49.302;9.306;2023-02-18T03:32:38;9.90;98.30
8707;DHT22;4390;49.302;9.306;2023-02-18T03:35:11;9.80;98.30
8707;DHT22;4390;49.302;9.306;2023-02-18T03:37:46;9.80;98.30
8707;DHT22;4390;49.302;9.306;2023-02-18T03:40:15;9.80;98.30
8707;DHT22;4390;49.302;9.306;2023-02-18T03:42:42;9.70;98.30
8707;DHT22;4390;49.302;9.306;2023-02-18T03:45:10;9.80;98.30
8707;DHT22;4390;49.302;9.306;2023-02-18T03:47:40;9.80;98.30
8707;DHT22;4390;49.302;9.306;2023-02-18T03:50:07;9.90;98.30
8707;DHT22;4390;49.302;9.306;2023-02-18T03:52:34;10.00;98.30
8707;DHT22;4390;49.302;9.306;2023-02-18T03:55:04;10.00;98.30
8707;DHT22;4390;49.302;9.306;2023-02-18T03:57:31;10.10;98.30
8707;DHT22;4390;49.302;9.306;2023-02-18T04:00:05;10.10;98.30
8707;DHT22;4390;49.302;9.306;2023-02-18T04:02:40;10.10;98.30
8707;DHT22;4390;49.302;9.306;2023-02-18T04:05:07;10.20;98.30
8707;DHT22;4390;49.302;9.306;2023-02-18T04:07:34;10.00;98.30
8707;DHT22;4390;49.302;9.306;2023-02-18T04:10:02;10.10;98.30
8707;DHT22;4390;49.302;9.306;2023-02-18T04:12:29;9.90;98.30
8707;DHT22;4390;49.302;9.306;2023-02-18T04:14:55;9.90;98.30
8707;DHT22;4390;49.302;9.306;2023-02-18T04:17:22;10.00;98.30
8707;DHT22;4390;49.302;9.306;2023-02-18T04:19:49;10.00;98.30
8707;DHT22;4390;49.302;9.306;2023-02-18T04:22:16;10.10;98.30
8707;DHT22;4390;49.302;9.306;2023-02-18T04:24:42;10.10;98.30
8707;DHT22;4390;49.302;9.306;2023-02-18T04:27:09;10.00;98.30
8707;DHT22;4390;49.302;9.306;2023-02-18T04:29:37;9.90;98.30
8707;DHT22;4390;49.302;9.306;2023-02-18T04:32:03;10.00;98.30
8707;DHT22;4390;49.302;9.306;2023-02-18T04:34:30;10.00;98.30
8707;DHT22;4390;49.302;9.306;2023-02-18T04:36:57;10.00;98.30
8707;DHT22;4390;49.302;9.306;2023-02-18T04:39:24;10.10;98.30
8707;DHT22;4390;49.302;9.306;2023-02-18T04:41:50;10.00;98.30
8707;DHT22;4390;49.302;9.306;2023-02-18T04:44:17;10.00;98.30
8707;DHT22;4390;49.302;9.306;2023-02-18T04:46:44;10.10;98.30
8707;DHT22;4390;49.302;9.306;2023-02-18T04:49:11;10.20;98.30
8707;DHT22;4390;49.302;9.306;2023-02-18T04:51:37;10.40;98.30
8707;DHT22;4390;49.302;9.306;2023-02-18T04:54:04;10.40;98.30
8707;DHT22;4390;49.302;9.306;2023-02-18T04:56:31;10.30;98.30
8707;DHT22;4390;49.302;9.306;2023-02-18T04:58:59;10.30;98.30
8707;DHT22;4390;49.302;9.306;2023-02-18T05:01:25;10.00;98.30
8707;DHT22;4390;49.302;9.306;2023-02-18T05:03:52;10.00;98.30
8707;DHT22;4390;49.302;9.306;2023-02-18T05:06:19;10.10;98.30
8707;DHT22;4390;49.302;9.306;2023-02-18T05:08:51;10.10;98.30
8707;DHT22;4390;49.302;9.306;2023-02-18T05:11:21;10.10;98.30
8707;DHT22;4390;49.302;9.306;2023-02-18T05:13:48;9.90;98.30
8707;DHT22;4390;49.302;9.306;2023-02-18T05:16:15;9.90;98.30
8707;DHT22;4390;49.302;9.306;2023-02-18T05:18:42;9.90;98.30
8707;DHT22;4390;49.302;9.306;2023-02-18T05:21:08;9.90;98.30
8707;DHT22;4390;49.302;9.306;2023-02-18T05:23:37;10.00;98.30
8707;DHT22;4390;49.302;9.306;2023-02-18T05:26:04;9.90;98.30
8707;DHT22;4390;49.302;9.306;2023-02-18T05:28:30;10.10;98.30
8707;DHT22;4390;49.302;9.306;2023-02-18T05:30:57;10.00;98.30
8707;DHT22;4390;49.302;9.306;2023-02-18T05:33:24;9.70;98.30
8707;DHT22;4390;49.302;9.306;2023-02-18T05:35:51;9.60;98.30
8707;DHT22;4390;49.302;9.306;2023-02-18T05:38:18;9.80;98.30
8707;DHT22;4390;49.302;9.306;2023-02-18T05:40:45;9.90;98.30
8707;DHT22;4390;49.302;9.306;2023-02-18T05:43:13;9.80;98.30
8707;DHT22;4390;49.302;9.306;2023-02-18T05:45:40;9.90;98.30
8707;DHT22;4390;49.302;9.306;2023-02-18T05:48:06;9.90;98.30
8707;DHT22;4390;49.302;9.306;2023-02-18T05:50:33;10.00;98.30
8707;DHT22;4390;49.302;9.306;2023-02-18T05:53:00;10.20;98.30
8707;DHT22;4390;49.302;9.306;2023-02-18T05:55:27;10.10;98.30
8707;DHT22;4390;49.302;9.306;2023-02-18T05:57:53;10.20;98.30
8707;DHT22;4390;49.302;9.306;2023-02-18T06:00:20;10.30;98.30
8707;DHT22;4390;49.302;9.306;2023-02-18T06:02:47;10.20;98.30
8707;DHT22;4390;49.302;9.306;2023-02-18T06:05:14;10.20;98.30
8707;DHT22;4390;49.302;9.306;2023-02-18T06:07:41;10.40;98.30
8707;DHT22;4390;49.302;9.306;2023-02-18T06:10:08;10.40;98.30
8707;DHT22;4390;49.302;9.306;2023-02-18T06:12:34;10.30;98.30
8707;DHT22;4390;49.302;9.306;2023-02-18T06:15:01;10.10;98.30
8707;DHT22;4390;49.302;9.306;2023-02-18T06:17:28;10.00;98.30
8707;DHT22;4390;49.302;9.306;2023-02-18T06:19:55;9.80;98.30
8707;DHT22;4390;49.302;9.306;2023-02-18T06:22:21;9.90;98.30
8707;DHT22;4390;49.302;9.306;2023-02-18T06:24:48;10.00;98.30
8707;DHT22;4390;49.302;9.306;2023-02-18T06:27:15;10.10;98.30
8707;DHT22;4390;49.302;9.306;2023-02-18T06:29:41;10.10;98.30
8707;DHT22;4390;49.302;9.306;2023-02-18T06:32:08;10.10;98.30
8707;DHT22;4390;49.302;9.306;2023-02-18T06:34:35;10.20;98.30
8707;DHT22;4390;49.302;9.306;2023-02-18T06:37:02;9.90;98.30
8707;DHT22;4390;49.302;9.306;2023-02-18T06:39:28;9.70;98.30
8707;DHT22;4390;49.302;9.306;2023-02-18T06:41:55;9.70;98.30
8707;DHT22;4390;49.302;9.306;2023-02-18T06:44:22;9.70;98.30
8707;DHT22;4390;49.302;9.306;2023-02-18T06:46:48;9.90;98.30
8707;DHT22;4390;49.302;9.306;2023-02-18T06:49:15;10.00;98.30
8707;DHT22;4390;49.302;9.306;2023-02-18T06:51:42;9.90;98.30
8707;DHT22;4390;49.302;9.306;2023-02-18T06:54:09;9.80;98.30
8707;DHT22;4390;49.302;9.306;2023-02-18T06:56:35;9.80;98.30
8707;DHT22;4390;49.302;9.306;2023-02-18T06:59:02;9.80;98.30
8707;DHT22;4390;49.302;9.306;2023-02-18T07:01:29;9.90;98.30
8707;DHT22;4390;49.302;9.306;2023-02-18T07:03:55;10.00;98.30
8707;DHT22;4390;49.302;9.306;2023-02-18T07:06:22;9.90;98.30
8707;DHT22;4390;49.302;9.306;2023-02-18T07:08:49;9.90;98.30
8707;DHT22;4390;49.302;9.306;2023-02-18T07:11:16;9.90;98.30
8707;DHT22;4390;49.302;9.306;2023-02-18T07:13:43;10.10;98.30
8707;DHT22;4390;49.302;9.306;2023-02-18T07:16:10;10.10;98.30
8707;DHT22;4390;49.302;9.306;2023-02-18T07:18:37;10.10;98.30
8707;DHT22;4390;49.302;9.306;2023-02-18T07:21:04;10.00;98.30
8707;DHT22;4390;49.302;9.306;2023-02-18T07:23:31;10.00;98.30
8707;DHT22;4390;49.302;9.306;2023-02-18T07:26:06;9.90;98.30
8707;DHT22;4390;49.302;9.306;2023-02-18T07:28:33;9.90;98.30
8707;DHT22;4390;49.302;9.306;2023-02-18T07:31:01;10.10;98.30
8707;DHT22;4390;49.302;9.306;2023-02-18T07:33:28;10.10;98.30
8707;DHT22;4390;49.302;9.306;2023-02-18T07:35:55;10.10;98.30
8707;DHT22;4390;49.302;9.306;2023-02-18T07:38:23;10.20;98.30
8707;DHT22;4390;49.302;9.306;2023-02-18T07:40:50;9.90;98.30
8707;DHT22;4390;49.302;9.306;2023-02-18T07:43:18;9.80;98.30
8707;DHT22;4390;49.302;9.306;2023-02-18T07:45:46;9.90;98.30
8707;DHT22;4390;49.302;9.306;2023-02-18T07:48:16;9.90;98.30
8707;DHT22;4390;49.302;9.306;2023-02-18T07:50:48;9.90;98.30
8707;DHT22;4390;49.302;9.306;2023-02-18T07:53:22;9.90;98.30
8707;DHT22;4390;49.302;9.306;2023-02-18T07:55:50;9.80;98.30
8707;DHT22;4390;49.302;9.306;2023-02-18T07:58:18;9.90;98.30
8707;DHT22;4390;49.302;9.306;2023-02-18T08:00:46;10.00;98.30
8707;DHT22;4390;49.302;9.306;2023-02-18T08:03:16;9.90;98.30
8707;DHT22;4390;49.302;9.306;2023-02-18T08:05:43;9.90;98.30
8707;DHT22;4390;49.302;9.306;2023-02-18T08:08:13;9.90;98.30
8707;DHT22;4390;49.302;9.306;2023-02-18T08:10:41;10.10;98.30
8707;DHT22;4390;49.302;9.306;2023-02-18T08:13:08;10.10;98.30
8707;DHT22;4390;49.302;9.306;2023-02-18T08:15:36;10.10;98.30
8707;DHT22;4390;49.302;9.306;2023-02-18T08:18:05;10.20;98.30
8707;DHT22;4390;49.302;9.306;2023-02-18T08:20:37;10.20;98.30
8707;DHT22;4390;49.302;9.306;2023-02-18T08:23:04;10.10;98.30
8707;DHT22;4390;49.302;9.306;2023-02-18T08:25:34;10.00;98.30
8707;DHT22;4390;49.302;9.306;2023-02-18T08:28:02;10.10;98.30
8707;DHT22;4390;49.302;9.306;2023-02-18T08:30:29;10.00;98.30
8707;DHT22;4390;49.302;9.306;2023-02-18T08:32:56;10.10;98.30
8707;DHT22;4390;49.302;9.306;2023-02-18T08:35:23;10.10;98.30
8707;DHT22;4390;49.302;9.306;2023-02-18T08:37:52;10.10;98.30
8707;DHT22;4390;49.302;9.306;2023-02-18T08:40:21;10.20;98.30
8707;DHT22;4390;49.302;9.306;2023-02-18T08:42:49;10.30;98.30
8707;DHT22;4390;49.302;9.306;2023-02-18T08:45:16;10.30;98.30
8707;DHT22;4390;49.302;9.306;2023-02-18T08:47:43;10.30;98.30
8707;DHT22;4390;49.302;9.306;2023-02-18T08:50:30;10.20;98.30
8707;DHT22;4390;49.302;9.306;2023-02-18T08:52:57;10.10;98.30
8707;DHT22;4390;49.302;9.306;2023-02-18T08:55:29;10.30;98.30
8707;DHT22;4390;49.302;9.306;2023-02-18T08:57:56;10.30;98.30
8707;DHT22;4390;49.302;9.306;2023-02-18T09:00:23;10.10;98.30
8707;DHT22;4390;49.302;9.306;2023-02-18T09:02:50;10.20;98.30
8707;DHT22;4390;49.302;9.306;2023-02-18T09:05:17;10.30;98.30
8707;DHT22;4390;49.302;9.306;2023-02-18T09:07:44;10.20;98.30
8707;DHT22;4390;49.302;9.306;2023-02-18T09:10:11;10.30;98.30
8707;DHT22;4390;49.302;9.306;2023-02-18T09:12:38;10.40;98.30
8707;DHT22;4390;49.302;9.306;2023-02-18T09:15:05;10.60;98.30
8707;DHT22;4390;49.302;9.306;2023-02-18T09:17:32;10.60;98.30
8707;DHT22;4390;49.302;9.306;2023-02-18T09:19:59;10.60;98.30
8707;DHT22;4390;49.302;9.306;2023-02-18T09:22:26;10.60;98.30
8707;DHT22;4390;49.302;9.306;2023-02-18T09:24:53;10.60;98.30
8707;DHT22;4390;49.302;9.306;2023-02-18T09:27:20;10.70;98.30
8707;DHT22;4390;49.302;9.306;2023-02-18T09:29:47;10.90;98.30
8707;DHT22;4390;49.302;9.306;2023-02-18T09:32:16;10.80;98.30
8707;DHT22;4390;49.302;9.306;2023-02-18T09:34:59;10.80;98.30
8707;DHT22;4390;49.302;9.306;2023-02-18T09:37:26;10.80;98.30
8707;DHT22;4390;49.302;9.306;2023-02-18T09:39:54;10.60;98.30
8707;DHT22;4390;49.302;9.306;2023-02-18T09:42:30;10.60;98.30
8707;DHT22;4390;49.302;9.306;2023-02-18T09:45:02;10.50;98.30
8707;DHT22;4390;49.302;9.306;2023-02-18T09:47:36;10.70;98.30
8707;DHT22;4390;49.302;9.306;2023-02-18T09:50:19;10.80;98.30
8707;DHT22;4390;49.302;9.306;2023-02-18T09:52:47;11.00;98.30
8707;DHT22;4390;49.302;9.306;2023-02-18T09:57:56;11.00;98.30
8707;DHT22;4390;49.302;9.306;2023-02-18T10:03:15;11.00;98.30
8707;DHT22;4390;49.302;9.306;2023-02-18T10:05:56;10.80;98.30
8707;DHT22;4390;49.302;9.306;2023-02-18T10:08:28;10.90;98.30
8707;DHT22;4390;49.302;9.306;2023-02-18T10:10:55;11.00;98.30
8707;DHT22;4390;49.302;9.306;2023-02-18T10:13:31;11.00;98.30
8707;DHT22;4390;49.302;9.306;2023-02-18T10:15:58;11.00;98.30
8707;DHT22;4390;49.302;9.306;2023-02-18T10:18:32;11.00;98.30
8707;DHT22;4390;49.302;9.306;2023-02-18T10:21:11;10.90;98.30
8707;DHT22;4390;49.302;9.306;2023-02-18T10:23:56;10.90;98.30
8707;DHT22;4390;49.302;9.306;2023-02-18T10:26:25;11.00;98.30
8707;DHT22;4390;49.302;9.306;2023-02-18T10:28:52;11.00;98.30
8707;DHT22;4390;49.302;9.306;2023-02-18T10:31:30;11.10;97.90
8707;DHT22;4390;49.302;9.306;2023-02-18T10:34:33;11.30;97.90
8707;DHT22;4390;49.302;9.306;2023-02-18T10:45:46;11.00;97.50
8707;DHT22;4390;49.302;9.306;2023-02-18T10:48:45;10.90;97.80
8707;DHT22;4390;49.302;9.306;2023-02-18T10:51:21;10.90;98.10
8707;DHT22;4390;49.302;9.306;2023-02-18T10:53:51;10.90;98.00
8707;DHT22;4390;49.302;9.306;2023-02-18T10:56:46;11.00;97.60
8707;DHT22;4390;49.302;9.306;2023-02-18T10:59:20;11.10;97.20
8707;DHT22;4390;49.302;9.306;2023-02-18T11:02:16;11.10;97.30
8707;DHT22;4390;49.302;9.306;2023-02-18T11:04:44;11.30;96.70
8707;DHT22;4390;49.302;9.306;2023-02-18T11:07:15;11.30;96.30
8707;DHT22;4390;49.302;9.306;2023-02-18T11:09:55;11.40;96.20
8707;DHT22;4390;49.302;9.306;2023-02-18T11:12:26;11.60;95.50
8707;DHT22;4390;49.302;9.306;2023-02-18T11:17:40;11.50;95.40
8707;DHT22;4390;49.302;9.306;2023-02-18T11:20:36;11.40;95.50
8707;DHT22;4390;49.302;9.306;2023-02-18T11:25:35;11.40;95.40
8707;DHT22;4390;49.302;9.306;2023-02-18T11:28:04;11.00;96.30
8707;DHT22;4390;49.302;9.306;2023-02-18T11:35:56;11.30;96.40
8707;DHT22;4390;49.302;9.306;2023-02-18T11:38:42;11.50;95.90
8707;DHT22;4390;49.302;9.306;2023-02-18T11:41:29;11.50;95.70
8707;DHT22;4390;49.302;9.306;2023-02-18T11:43:57;11.30;95.70
8707;DHT22;4390;49.302;9.306;2023-02-18T11:46:26;11.30;96.10
8707;DHT22;4390;49.302;9.306;2023-02-18T11:48:53;11.30;95.70
8707;DHT22;4390;49.302;9.306;2023-02-18T11:51:26;11.20;95.20
8707;DHT22;4390;49.302;9.306;2023-02-18T11:56:34;11.20;94.60
8707;DHT22;4390;49.302;9.306;2023-02-18T11:59:02;11.20;94.30
8707;DHT22;4390;49.302;9.306;2023-02-18T12:01:42;11.30;93.70
8707;DHT22;4390;49.302;9.306;2023-02-18T12:04:18;11.30;93.80
8707;DHT22;4390;49.302;9.306;2023-02-18T12:09:42;11.50;93.10
8707;DHT22;4390;49.302;9.306;2023-02-18T12:12:27;11.50;92.60
8707;DHT22;4390;49.302;9.306;2023-02-18T12:14:55;11.50;93.00
8707;DHT22;4390;49.302;9.306;2023-02-18T12:39:33;11.60;92.00
8707;DHT22;4390;49.302;9.306;2023-02-18T12:45:42;11.50;91.90
8707;DHT22;4390;49.302;9.306;2023-02-18T12:50:51;11.30;92.20
8707;DHT22;4390;49.302;9.306;2023-02-18T12:59:51;12.00;90.80
8707;DHT22;4390;49.302;9.306;2023-02-18T13:02:38;11.80;91.10
8707;DHT22;4390;49.302;9.306;2023-02-18T13:05:37;11.80;91.00
8707;DHT22;4390;49.302;9.306;2023-02-18T13:16:27;13.80;86.90
8707;DHT22;4390;49.302;9.306;2023-02-18T13:19:31;13.30;86.80
8707;DHT22;4390;49.302;9.306;2023-02-18T13:22:03;13.00;88.00
8707;DHT22;4390;49.302;9.306;2023-02-18T13:24:32;13.00;87.70
8707;DHT22;4390;49.302;9.306;2023-02-18T13:35:42;12.20;89.90
8707;DHT22;4390;49.302;9.306;2023-02-18T13:41:12;12.20;89.70
8707;DHT22;4390;49.302;9.306;2023-02-18T13:43:39;12.00;90.20
8707;DHT22;4390;49.302;9.306;2023-02-18T13:46:17;12.00;90.50
8707;DHT22;4390;49.302;9.306;2023-02-18T13:51:36;11.70;91.30
8707;DHT22;4390;49.302;9.306;2023-02-18T13:54:27;11.90;91.20
8707;DHT22;4390;49.302;9.306;2023-02-18T13:57:03;12.30;90.70
8707;DHT22;4390;49.302;9.306;2023-02-18T13:59:34;12.40;90.50
8707;DHT22;4390;49.302;9.306;2023-02-18T14:04:52;12.60;90.20
8707;DHT22;4390;49.302;9.306;2023-02-18T14:07:50;12.50;90.00
8707;DHT22;4390;49.302;9.306;2023-02-18T14:25:50;12.10;90.40
8707;DHT22;4390;49.302;9.306;2023-02-18T14:31:23;12.20;89.90
8707;DHT22;4390;49.302;9.306;2023-02-18T14:45:52;12.30;89.60
8707;DHT22;4390;49.302;9.306;2023-02-18T14:51:30;11.90;90.20
8707;DHT22;4390;49.302;9.306;2023-02-18T14:54:05;11.50;90.60
8707;DHT22;4390;49.302;9.306;2023-02-18T14:56:37;11.20;91.20
8707;DHT22;4390;49.302;9.306;2023-02-18T14:59:05;11.40;91.50
8707;DHT22;4390;49.302;9.306;2023-02-18T15:01:34;11.60;91.00
8707;DHT22;4390;49.302;9.306;2023-02-18T15:04:02;11.70;90.60
8707;DHT22;4390;49.302;9.306;2023-02-18T15:06:36;11.50;90.70
8707;DHT22;4390;49.302;9.306;2023-02-18T15:09:14;11.50;90.60
8707;DHT22;4390;49.302;9.306;2023-02-18T15:11:45;11.20;90.70
8707;DHT22;4390;49.302;9.306;2023-02-18T15:14:23;11.00;91.50
8707;DHT22;4390;49.302;9.306;2023-02-18T15:16:51;11.00;91.20
8707;DHT22;4390;49.302;9.306;2023-02-18T15:19:27;11.00;91.50
8707;DHT22;4390;49.302;9.306;2023-02-18T15:21:56;10.90;91.40
8707;DHT22;4390;49.302;9.306;2023-02-18T15:24:33;10.90;91.50
8707;DHT22;4390;49.302;9.306;2023-02-18T15:27:18;10.90;91.40
8707;DHT22;4390;49.302;9.306;2023-02-18T15:29:51;11.00;91.50
8707;DHT22;4390;49.302;9.306;2023-02-18T15:32:21;11.00;91.50
8707;DHT22;4390;49.302;9.306;2023-02-18T15:34:50;10.90;91.40
8707;DHT22;4390;49.302;9.306;2023-02-18T15:37:18;10.80;91.80
8707;DHT22;4390;49.302;9.306;2023-02-18T15:39:45;10.80;91.40
8707;DHT22;4390;49.302;9.306;2023-02-18T15:42:26;10.80;91.70
8707;DHT22;4390;49.302;9.306;2023-02-18T15:45:16;10.70;91.70
8707;DHT22;4390;49.302;9.306;2023-02-18T15:47:50;10.50;92.50
8707;DHT22;4390;49.302;9.306;2023-02-18T15:50:24;10.80;92.30
8707;DHT22;4390;49.302;9.306;2023-02-18T15:52:53;10.90;92.00
8707;DHT22;4390;49.302;9.306;2023-02-18T15:57:51;10.80;92.10
8707;DHT22;4390;49.302;9.306;2023-02-18T16:00:26;10.80;92.40
8707;DHT22;4390;49.302;9.306;2023-02-18T16:05:37;10.80;92.00
8707;DHT22;4390;49.302;9.306;2023-02-18T16:08:16;10.80;92.10
8707;DHT22;4390;49.302;9.306;2023-02-18T16:10:51;10.50;92.90
8707;DHT22;4390;49.302;9.306;2023-02-18T16:13:19;10.60;92.80
8707;DHT22;4390;49.302;9.306;2023-02-18T16:15:48;10.80;92.30
8707;DHT22;4390;49.302;9.306;2023-02-18T16:18:20;11.00;91.80
8707;DHT22;4390;49.302;9.306;2023-02-18T16:21:00;11.00;91.70
8707;DHT22;4390;49.302;9.306;2023-02-18T16:23:40;10.90;91.80
8707;DHT22;4390;49.302;9.306;2023-02-18T16:28:52;10.40;92.80
8707;DHT22;4390;49.302;9.306;2023-02-18T16:31:19;10.50;93.00
8707;DHT22;4390;49.302;9.306;2023-02-18T16:33:47;10.50;92.60
8707;DHT22;4390;49.302;9.306;2023-02-18T16:36:15;10.60;92.70
8707;DHT22;4390;49.302;9.306;2023-02-18T16:38:43;10.70;92.90
8707;DHT22;4390;49.302;9.306;2023-02-18T16:41:12;10.40;93.90
8707;DHT22;4390;49.302;9.306;2023-02-18T16:43:40;9.90;95.40
8707;DHT22;4390;49.302;9.306;2023-02-18T16:46:11;9.70;95.90
8707;DHT22;4390;49.302;9.306;2023-02-18T16:48:41;9.90;95.90
8707;DHT22;4390;49.302;9.306;2023-02-18T16:51:21;10.10;96.10
8707;DHT22;4390;49.302;9.306;2023-02-18T16:53:49;10.10;95.90
8707;DHT22;4390;49.302;9.306;2023-02-18T16:56:21;10.00;95.80
8707;DHT22;4390;49.302;9.306;2023-02-18T16:58:49;9.90;96.20
8707;DHT22;4390;49.302;9.306;2023-02-18T17:01:27;9.70;96.40
8707;DHT22;4390;49.302;9.306;2023-02-18T17:03:56;9.40;97.00
8707;DHT22;4390;49.302;9.306;2023-02-18T17:06:24;9.20;97.30
8707;DHT22;4390;49.302;9.306;2023-02-18T17:08:51;9.50;97.30
8707;DHT22;4390;49.302;9.306;2023-02-18T17:13:52;9.80;95.60
8707;DHT22;4390;49.302;9.306;2023-02-18T17:16:20;9.90;95.60
8707;DHT22;4390;49.302;9.306;2023-02-18T17:18:47;9.80;95.60
8707;DHT22;4390;49.302;9.306;2023-02-18T17:21:20;9.80;95.60
8707;DHT22;4390;49.302;9.306;2023-02-18T17:23:48;9.70;95.60
8707;DHT22;4390;49.302;9.306;2023-02-18T17:26:27;9.90;95.60
8707;DHT22;4390;49.302;9.306;2023-02-18T17:28:56;10.00;94.90
8707;DHT22;4390;49.302;9.306;2023-02-18T17:31:26;10.10;94.80
8707;DHT22;4390;49.302;9.306;2023-02-18T17:33:58;10.10;94.50
8707;DHT22;4390;49.302;9.306;2023-02-18T17:36:25;10.20;94.20
8707;DHT22;4390;49.302;9.306;2023-02-18T17:38:52;10.20;94.10
8707;DHT22;4390;49.302;9.306;2023-02-18T17:41:19;10.40;93.90
8707;DHT22;4390;49.302;9.306;2023-02-18T17:43:45;10.50;93.60
8707;DHT22;4390;49.302;9.306;2023-02-18T17:46:14;10.60;93.00
8707;DHT22;4390;49.302;9.306;2023-02-18T17:48:41;10.50;93.30
8707;DHT22;4390;49.302;9.306;2023-02-18T17:51:27;10.10;93.80
8707;DHT22;4390;49.302;9.306;2023-02-18T17:53:55;10.20;93.80
8707;DHT22;4390;49.302;9.306;2023-02-18T17:56:22;10.30;93.70
8707;DHT22;4390;49.302;9.306;2023-02-18T17:58:49;10.40;93.60
8707;DHT22;4390;49.302;9.306;2023-02-18T18:01:17;10.50;93.30
8707;DHT22;4390;49.302;9.306;2023-02-18T18:03:46;10.40;93.30
8707;DHT22;4390;49.302;9.306;2023-02-18T18:06:18;10.30;93.30
8707;DHT22;4390;49.302;9.306;2023-02-18T18:08:46;10.20;93.70
8707;DHT22;4390;49.302;9.306;2023-02-18T18:11:17;10.20;93.60
8707;DHT22;4390;49.302;9.306;2023-02-18T18:13:44;10.30;93.70
8707;DHT22;4390;49.302;9.306;2023-02-18T18:16:13;10.30;93.50
8707;DHT22;4390;49.302;9.306;2023-02-18T18:18:40;10.10;94.00
8707;DHT22;4390;49.302;9.306;2023-02-18T18:21:28;10.10;94.10
8707;DHT22;4390;49.302;9.306;2023-02-18T18:23:55;10.30;93.90
8707;DHT22;4390;49.302;9.306;2023-02-18T18:26:22;10.30;93.90
8707;DHT22;4390;49.302;9.306;2023-02-18T18:28:48;9.90;94.30
8707;DHT22;4390;49.302;9.306;2023-02-18T18:31:17;9.60;95.40
8707;DHT22;4390;49.302;9.306;2023-02-18T18:33:45;9.40;96.00
8707;DHT22;4390;49.302;9.306;2023-02-18T18:36:17;9.60;96.00
8707;DHT22;4390;49.302;9.306;2023-02-18T18:38:45;9.70;95.70
8707;DHT22;4390;49.302;9.306;2023-02-18T18:41:15;9.70;95.60
8707;DHT22;4390;49.302;9.306;2023-02-18T18:43:42;9.70;95.60
8707;DHT22;4390;49.302;9.306;2023-02-18T18:46:09;9.70;95.60
8707;DHT22;4390;49.302;9.306;2023-02-18T18:48:36;9.70;95.50
8707;DHT22;4390;49.302;9.306;2023-02-18T18:51:03;9.50;95.90
8707;DHT22;4390;49.302;9.306;2023-02-18T18:53:33;9.40;96.20
8707;DHT22;4390;49.302;9.306;2023-02-18T18:56:05;9.60;95.90
8707;DHT22;4390;49.302;9.306;2023-02-18T18:58:32;9.80;95.50
8707;DHT22;4390;49.302;9.306;2023-02-18T19:01:03;10.00;95.00
8707;DHT22;4390;49.302;9.306;2023-02-18T19:03:30;10.00;94.70
8707;DHT22;4390;49.302;9.306;2023-02-18T19:05:59;9.80;94.80
8707;DHT22;4390;49.302;9.306;2023-02-18T19:08:29;9.80;95.20
8707;DHT22;4390;49.302;9.306;2023-02-18T19:10:58;9.80;95.10
8707;DHT22;4390;49.302;9.306;2023-02-18T19:13:28;9.90;95.00
8707;DHT22;4390;49.302;9.306;2023-02-18T19:18:27;10.00;94.70
8707;DHT22;4390;49.302;9.306;2023-02-18T19:20:54;10.10;94.30
8707;DHT22;4390;49.302;9.306;2023-02-18T19:23:27;10.00;94.30